PWSweather.com
Personal Weather Stations
Station Observations
SD92115WX
El Cerrito Stoneybluff, San Diego, CA 92115

El Cerrito StoneybluffSan Diego, CA 92115

Lat: 32.754096, Lon: -117.066705

Elevation: 420

Station Type: Davis Vantage Vue

http://stoneybluff.com

High Low Average
Temperature 65.8°F18.8°C 53.6°F12.0°C 57.7°F14.3°C
Dew Point 58.3°F14.6°C 48.9°F9.4°C 54.0°F12.2°C
Winds 9.4 mph 15.1 kmh Calm Calm 1.0 mph SSE1.6 kmh SSE
Wind Gusts 17.0 mph27.4 kmh -- 4.0 mph6.4 kmh
Humidity 95% 75% 88%
Pressure 29.88 in1011.9 mb 29.73 in1006.8 mb -
Precipitation 1.66 in42.2 mm - -
Hour Temp Dew Point Humidity Winds Wind Gusts Pressure Precip Precip Rate Daily Precip Total
12:04 AM 54.5°F12.5°C 49.5°F9.7°C 83% Calm Calm -- 29.81 in1009.5 mb 0.00 in0.0 mm 0.00 in0.0 mm 0.00 in0.0 mm
12:09 AM 54.3°F12.4°C 49.3°F9.6°C 83% Calm Calm -- 29.80 in1009.1 mb 0.00 in0.0 mm 0.00 in0.0 mm 0.00 in0.0 mm
12:14 AM 54.3°F12.4°C 49.3°F9.6°C 83% Calm Calm -- 29.80 in1009.1 mb 0.00 in0.0 mm 0.00 in0.0 mm 0.00 in0.0 mm
12:19 AM 54.1°F12.3°C 49.1°F9.5°C 83% Calm Calm -- 29.80 in1009.1 mb 0.00 in0.0 mm 0.00 in0.0 mm 0.00 in0.0 mm
12:24 AM 54.0°F12.2°C 48.9°F9.4°C 83% Calm Calm -- 29.80 in1009.1 mb 0.00 in0.0 mm 0.00 in0.0 mm 0.00 in0.0 mm
12:29 AM 54.0°F12.2°C 49.3°F9.6°C 84% Calm Calm -- 29.80 in1009.1 mb 0.00 in0.0 mm 0.00 in0.0 mm 0.00 in0.0 mm
12:34 AM 54.1°F12.3°C 49.5°F9.7°C 84% Calm Calm -- 29.80 in1009.1 mb 0.00 in0.0 mm 0.00 in0.0 mm 0.00 in0.0 mm
12:39 AM 54.1°F12.3°C 49.5°F9.7°C 84% Calm Calm -- 29.80 in1009.1 mb 0.00 in0.0 mm 0.00 in0.0 mm 0.00 in0.0 mm
12:44 AM 54.1°F12.3°C 49.8°F9.9°C 85% Calm Calm -- 29.80 in1009.1 mb 0.00 in0.0 mm 0.00 in0.0 mm 0.00 in0.0 mm
12:49 AM 54.3°F12.4°C 49.8°F9.9°C 85% Calm Calm -- 29.80 in1009.1 mb 0.00 in0.0 mm 0.00 in0.0 mm 0.00 in0.0 mm
12:54 AM 54.7°F12.6°C 50.2°F10.1°C 85% Calm Calm -- 29.79 in1008.8 mb 0.00 in0.0 mm 0.00 in0.0 mm 0.00 in0.0 mm
12:59 AM 55.0°F12.8°C 50.4°F10.2°C 84% Calm Calm -- 29.79 in1008.8 mb 0.00 in0.0 mm 0.00 in0.0 mm 0.00 in0.0 mm
01:04 AM 55.2°F12.9°C 50.5°F10.3°C 84% Calm Calm -- 29.80 in1009.1 mb 0.00 in0.0 mm 0.00 in0.0 mm 0.00 in0.0 mm
01:09 AM 55.4°F13.0°C 50.4°F10.2°C 83% Calm Calm -- 29.80 in1009.1 mb 0.00 in0.0 mm 0.00 in0.0 mm 0.00 in0.0 mm
01:14 AM 55.4°F13.0°C 50.0°F10.0°C 82% Calm Calm -- 29.80 in1009.1 mb 0.00 in0.0 mm 0.00 in0.0 mm 0.00 in0.0 mm
01:19 AM 55.2°F12.9°C 49.8°F9.9°C 82% Calm Calm -- 29.80 in1009.1 mb 0.00 in0.0 mm 0.00 in0.0 mm 0.00 in0.0 mm
01:24 AM 55.0°F12.8°C 49.6°F9.8°C 82% Calm Calm -- 29.80 in1009.1 mb 0.00 in0.0 mm 0.00 in0.0 mm 0.00 in0.0 mm
01:29 AM 55.2°F12.9°C 50.2°F10.1°C 83% Calm Calm -- 29.80 in1009.1 mb 0.00 in0.0 mm 0.00 in0.0 mm 0.00 in0.0 mm
01:34 AM 55.0°F12.8°C 49.6°F9.8°C 82% Calm Calm -- 29.80 in1009.1 mb 0.00 in0.0 mm 0.00 in0.0 mm 0.00 in0.0 mm
01:39 AM 55.0°F12.8°C 49.6°F9.8°C 82% Calm Calm -- 29.80 in1009.1 mb 0.00 in0.0 mm 0.00 in0.0 mm 0.00 in0.0 mm
01:44 AM 54.9°F12.7°C 49.8°F9.9°C 83% Calm Calm -- 29.81 in1009.5 mb 0.00 in0.0 mm 0.00 in0.0 mm 0.00 in0.0 mm
01:49 AM 54.9°F12.7°C 49.8°F9.9°C 83% Calm Calm -- 29.81 in1009.5 mb 0.00 in0.0 mm 0.00 in0.0 mm 0.00 in0.0 mm
01:54 AM 55.0°F12.8°C 50.0°F10.0°C 83% Calm Calm -- 29.81 in1009.5 mb 0.00 in0.0 mm 0.00 in0.0 mm 0.00 in0.0 mm
01:59 AM 55.2°F12.9°C 49.8°F9.9°C 82% Calm Calm -- 29.80 in1009.1 mb 0.00 in0.0 mm 0.00 in0.0 mm 0.00 in0.0 mm
02:04 AM 55.0°F12.8°C 49.6°F9.8°C 82% Calm Calm -- 29.80 in1009.1 mb 0.00 in0.0 mm 0.00 in0.0 mm 0.00 in0.0 mm
02:09 AM 54.9°F12.7°C 49.8°F9.9°C 83% 0.2 mph ENE0.3 kmh ENE 1.1 mph1.8 kmh 29.80 in1009.1 mb 0.00 in0.0 mm 0.00 in0.0 mm 0.00 in0.0 mm
02:14 AM 54.5°F12.5°C 49.5°F9.7°C 83% Calm Calm -- 29.80 in1009.1 mb 0.00 in0.0 mm 0.00 in0.0 mm 0.00 in0.0 mm
02:19 AM 54.1°F12.3°C 49.5°F9.7°C 84% Calm Calm 2.0 mph3.2 kmh 29.80 in1009.1 mb 0.00 in0.0 mm 0.00 in0.0 mm 0.00 in0.0 mm
02:24 AM 54.0°F12.2°C 49.6°F9.8°C 85% Calm Calm -- 29.80 in1009.1 mb 0.00 in0.0 mm 0.00 in0.0 mm 0.00 in0.0 mm
02:29 AM 53.6°F12.0°C 49.5°F9.7°C 86% Calm Calm 2.0 mph3.2 kmh 29.80 in1009.1 mb 0.00 in0.0 mm 0.00 in0.0 mm 0.00 in0.0 mm
02:34 AM 54.0°F12.2°C 50.2°F10.1°C 87% 1.8 mph SSW2.9 kmh SSW 4.3 mph6.9 kmh 29.80 in1009.1 mb 0.00 in0.0 mm 0.00 in0.0 mm 0.00 in0.0 mm
02:39 AM 54.7°F12.6°C 50.5°F10.3°C 86% 2.0 mph SSE3.2 kmh SSE 4.3 mph6.9 kmh 29.80 in1009.1 mb 0.00 in0.0 mm 0.00 in0.0 mm 0.00 in0.0 mm
02:44 AM 55.0°F12.8°C 50.5°F10.3°C 85% 1.1 mph S1.8 kmh S 3.1 mph5.0 kmh 29.80 in1009.1 mb 0.00 in0.0 mm 0.00 in0.0 mm 0.00 in0.0 mm
02:49 AM 55.4°F13.0°C 50.7°F10.4°C 84% 1.1 mph SE1.8 kmh SE 3.1 mph5.0 kmh 29.80 in1009.1 mb 0.00 in0.0 mm 0.00 in0.0 mm 0.00 in0.0 mm
02:54 AM 55.6°F13.1°C 50.5°F10.3°C 83% 0.7 mph SE1.1 kmh SE 2.0 mph3.2 kmh 29.80 in1009.1 mb 0.00 in0.0 mm 0.00 in0.0 mm 0.00 in0.0 mm
02:59 AM 55.6°F13.1°C 50.2°F10.1°C 82% 1.6 mph SW2.6 kmh SW 7.4 mph11.9 kmh 29.80 in1009.1 mb 0.00 in0.0 mm 0.00 in0.0 mm 0.00 in0.0 mm
03:04 AM 56.1°F13.4°C 50.7°F10.4°C 82% 4.7 mph SSE7.6 kmh SSE 8.5 mph13.7 kmh 29.80 in1009.1 mb 0.00 in0.0 mm 0.00 in0.0 mm 0.00 in0.0 mm
03:09 AM 56.1°F13.4°C 50.7°F10.4°C 82% 2.0 mph SE3.2 kmh SE 8.5 mph13.7 kmh 29.80 in1009.1 mb 0.01 in0.3 mm 0.12 in3.0 mm 0.01 in0.3 mm
03:14 AM 55.9°F13.3°C 50.9°F10.5°C 83% Calm Calm 1.1 mph1.8 kmh 29.79 in1008.8 mb 0.02 in0.5 mm 0.12 in3.0 mm 0.02 in0.5 mm
03:19 AM 55.6°F13.1°C 50.9°F10.5°C 84% Calm Calm -- 29.79 in1008.8 mb 0.02 in0.5 mm 0.00 in0.0 mm 0.02 in0.5 mm
03:24 AM 55.2°F12.9°C 50.7°F10.4°C 85% Calm Calm -- 29.79 in1008.8 mb 0.03 in0.8 mm 0.12 in3.0 mm 0.03 in0.8 mm
03:29 AM 55.0°F12.8°C 50.9°F10.5°C 86% Calm Calm -- 29.79 in1008.8 mb 0.03 in0.8 mm 0.00 in0.0 mm 0.03 in0.8 mm
03:34 AM 54.9°F12.7°C 51.1°F10.6°C 87% Calm Calm -- 29.78 in1008.5 mb 0.04 in1.0 mm 0.12 in3.0 mm 0.04 in1.0 mm
03:39 AM 54.7°F12.6°C 50.9°F10.5°C 87% Calm Calm 1.1 mph1.8 kmh 29.79 in1008.8 mb 0.04 in1.0 mm 0.00 in0.0 mm 0.04 in1.0 mm
03:44 AM 54.9°F12.7°C 51.4°F10.8°C 88% Calm Calm -- 29.78 in1008.5 mb 0.05 in1.3 mm 0.12 in3.0 mm 0.05 in1.3 mm
03:49 AM 54.9°F12.7°C 51.4°F10.8°C 88% Calm Calm -- 29.79 in1008.8 mb 0.05 in1.3 mm 0.00 in0.0 mm 0.05 in1.3 mm
03:54 AM 54.9°F12.7°C 51.6°F10.9°C 89% Calm Calm -- 29.79 in1008.8 mb 0.06 in1.5 mm 0.12 in3.0 mm 0.06 in1.5 mm
03:59 AM 54.7°F12.6°C 51.4°F10.8°C 89% Calm Calm -- 29.78 in1008.5 mb 0.06 in1.5 mm 0.00 in0.0 mm 0.06 in1.5 mm
04:04 AM 54.7°F12.6°C 51.4°F10.8°C 89% Calm Calm -- 29.79 in1008.8 mb 0.07 in1.8 mm 0.01 in0.3 mm 0.07 in1.8 mm
04:09 AM 54.7°F12.6°C 51.4°F10.8°C 89% Calm Calm -- 29.79 in1008.8 mb 0.06 in1.5 mm 0.00 in0.0 mm 0.07 in1.8 mm
04:14 AM 54.7°F12.6°C 51.8°F11.0°C 90% 0.2 mph N0.3 kmh N 1.1 mph1.8 kmh 29.79 in1008.8 mb 0.06 in1.5 mm 0.00 in0.0 mm 0.08 in2.0 mm
04:19 AM 54.7°F12.6°C 51.8°F11.0°C 90% Calm Calm -- 29.79 in1008.8 mb 0.06 in1.5 mm 0.00 in0.0 mm 0.08 in2.0 mm
04:24 AM 54.5°F12.5°C 51.6°F10.9°C 90% Calm Calm -- 29.79 in1008.8 mb 0.06 in1.5 mm 0.00 in0.0 mm 0.09 in2.3 mm
04:29 AM 54.3°F12.4°C 51.4°F10.8°C 90% Calm Calm -- 29.78 in1008.5 mb 0.06 in1.5 mm 0.00 in0.0 mm 0.09 in2.3 mm
04:34 AM 54.3°F12.4°C 51.4°F10.8°C 90% Calm Calm -- 29.78 in1008.5 mb 0.05 in1.3 mm 0.00 in0.0 mm 0.10 in2.5 mm
04:39 AM 54.3°F12.4°C 51.4°F10.8°C 90% Calm Calm -- 29.78 in1008.5 mb 0.06 in1.5 mm 0.12 in3.0 mm 0.10 in2.5 mm
04:44 AM 54.1°F12.3°C 51.6°F10.9°C 91% Calm Calm -- 29.78 in1008.5 mb 0.05 in1.3 mm 0.00 in0.0 mm 0.10 in2.5 mm
04:49 AM 54.1°F12.3°C 51.6°F10.9°C 91% Calm Calm -- 29.78 in1008.5 mb 0.06 in1.5 mm 0.12 in3.0 mm 0.11 in2.8 mm
04:54 AM 54.1°F12.3°C 51.6°F10.9°C 91% Calm Calm -- 29.79 in1008.8 mb 0.05 in1.3 mm 0.00 in0.0 mm 0.11 in2.8 mm
04:59 AM 54.1°F12.3°C 51.6°F10.9°C 91% Calm Calm -- 29.79 in1008.8 mb 0.05 in1.3 mm 0.00 in0.0 mm 0.11 in2.8 mm
05:04 AM 54.1°F12.3°C 51.6°F10.9°C 91% Calm Calm -- 29.79 in1008.8 mb 0.04 in1.0 mm 0.00 in0.0 mm 0.11 in2.8 mm
05:09 AM 54.1°F12.3°C 51.6°F10.9°C 91% Calm Calm -- 29.79 in1008.8 mb 0.05 in1.3 mm 0.12 in3.0 mm 0.12 in3.0 mm
05:14 AM 54.1°F12.3°C 51.6°F10.9°C 91% Calm Calm 1.1 mph1.8 kmh 29.79 in1008.8 mb 0.04 in1.0 mm 0.00 in0.0 mm 0.12 in3.0 mm
05:19 AM 54.1°F12.3°C 51.6°F10.9°C 91% Calm Calm -- 29.79 in1008.8 mb 0.04 in1.0 mm 0.00 in0.0 mm 0.12 in3.0 mm
05:24 AM 54.1°F12.3°C 51.6°F10.9°C 91% Calm Calm -- 29.80 in1009.1 mb 0.03 in0.8 mm 0.00 in0.0 mm 0.12 in3.0 mm
05:29 AM 54.3°F12.4°C 52.0°F11.1°C 92% Calm Calm -- 29.80 in1009.1 mb 0.03 in0.8 mm 0.00 in0.0 mm 0.12 in3.0 mm
05:34 AM 54.3°F12.4°C 52.0°F11.1°C 92% Calm Calm -- 29.80 in1009.1 mb 0.03 in0.8 mm 0.00 in0.0 mm 0.12 in3.0 mm
05:39 AM 54.3°F12.4°C 52.0°F11.1°C 92% Calm Calm -- 29.81 in1009.5 mb 0.02 in0.5 mm 0.00 in0.0 mm 0.12 in3.0 mm
05:44 AM 54.3°F12.4°C 52.0°F11.1°C 92% Calm Calm 1.1 mph1.8 kmh 29.81 in1009.5 mb 0.02 in0.5 mm 0.00 in0.0 mm 0.12 in3.0 mm
05:49 AM 54.5°F12.5°C 52.2°F11.2°C 92% Calm Calm 2.0 mph3.2 kmh 29.80 in1009.1 mb 0.02 in0.5 mm 0.00 in0.0 mm 0.13 in3.3 mm
05:54 AM 54.5°F12.5°C 52.2°F11.2°C 92% Calm Calm 2.0 mph3.2 kmh 29.81 in1009.5 mb 0.02 in0.5 mm 0.00 in0.0 mm 0.13 in3.3 mm
05:59 AM 54.5°F12.5°C 52.2°F11.2°C 92% Calm Calm -- 29.81 in1009.5 mb 0.03 in0.8 mm 0.12 in3.0 mm 0.14 in3.6 mm
06:04 AM 54.5°F12.5°C 52.2°F11.2°C 92% Calm Calm 1.1 mph1.8 kmh 29.81 in1009.5 mb 0.03 in0.8 mm 0.00 in0.0 mm 0.14 in3.6 mm
06:09 AM 54.7°F12.6°C 52.3°F11.3°C 92% Calm Calm 1.1 mph1.8 kmh 29.81 in1009.5 mb 0.02 in0.5 mm 0.00 in0.0 mm 0.15 in3.8 mm
06:14 AM 54.7°F12.6°C 52.3°F11.3°C 92% Calm Calm 2.0 mph3.2 kmh 29.82 in1009.8 mb 0.03 in0.8 mm 0.12 in3.0 mm 0.15 in3.8 mm
06:19 AM 54.7°F12.6°C 52.3°F11.3°C 92% Calm Calm 2.0 mph3.2 kmh 29.82 in1009.8 mb 0.03 in0.8 mm 0.00 in0.0 mm 0.15 in3.8 mm
06:24 AM 54.7°F12.6°C 52.3°F11.3°C 92% Calm Calm -- 29.82 in1009.8 mb 0.04 in1.0 mm 0.12 in3.0 mm 0.16 in4.1 mm
06:29 AM 54.7°F12.6°C 52.3°F11.3°C 92% 0.2 mph SW0.3 kmh SW 1.1 mph1.8 kmh 29.83 in1010.2 mb 0.04 in1.0 mm 0.00 in0.0 mm 0.16 in4.1 mm
06:34 AM 54.7°F12.6°C 52.3°F11.3°C 92% 1.1 mph NW1.8 kmh NW 2.0 mph3.2 kmh 29.83 in1010.2 mb 0.04 in1.0 mm 0.00 in0.0 mm 0.16 in4.1 mm
06:39 AM 54.7°F12.6°C 52.3°F11.3°C 92% Calm Calm 2.0 mph3.2 kmh 29.82 in1009.8 mb 0.05 in1.3 mm 0.12 in3.0 mm 0.17 in4.3 mm
06:44 AM 54.9°F12.7°C 52.5°F11.4°C 92% Calm Calm -- 29.82 in1009.8 mb 0.05 in1.3 mm 0.00 in0.0 mm 0.17 in4.3 mm
06:49 AM 54.7°F12.6°C 52.3°F11.3°C 92% Calm Calm -- 29.83 in1010.2 mb 0.04 in1.0 mm 0.00 in0.0 mm 0.17 in4.3 mm
06:54 AM 54.7°F12.6°C 52.3°F11.3°C 92% Calm Calm -- 29.83 in1010.2 mb 0.05 in1.3 mm 0.12 in3.0 mm 0.18 in4.6 mm
06:59 AM 54.9°F12.7°C 52.9°F11.6°C 93% Calm Calm -- 29.83 in1010.2 mb 0.04 in1.0 mm 0.00 in0.0 mm 0.18 in4.6 mm
07:04 AM 54.9°F12.7°C 52.9°F11.6°C 93% Calm Calm -- 29.83 in1010.2 mb 0.04 in1.0 mm 0.00 in0.0 mm 0.18 in4.6 mm
07:09 AM 55.0°F12.8°C 53.1°F11.7°C 93% Calm Calm -- 29.83 in1010.2 mb 0.05 in1.3 mm 0.12 in3.0 mm 0.19 in4.8 mm
07:14 AM 55.0°F12.8°C 53.1°F11.7°C 93% Calm Calm -- 29.83 in1010.2 mb 0.04 in1.0 mm 0.00 in0.0 mm 0.19 in4.8 mm
07:19 AM 55.2°F12.9°C 53.2°F11.8°C 93% Calm Calm -- 29.84 in1010.5 mb 0.04 in1.0 mm 0.00 in0.0 mm 0.19 in4.8 mm
07:24 AM 55.2°F12.9°C 53.2°F11.8°C 93% Calm Calm -- 29.84 in1010.5 mb 0.04 in1.0 mm 0.00 in0.0 mm 0.20 in5.1 mm
07:29 AM 55.2°F12.9°C 53.2°F11.8°C 93% 0.4 mph SW0.6 kmh SW 1.1 mph1.8 kmh 29.84 in1010.5 mb 0.04 in1.0 mm 0.00 in0.0 mm 0.20 in5.1 mm
07:34 AM 55.6°F13.1°C 53.6°F12.0°C 93% Calm Calm -- 29.84 in1010.5 mb 0.04 in1.0 mm 0.00 in0.0 mm 0.20 in5.1 mm
07:39 AM 55.8°F13.2°C 53.8°F12.1°C 93% Calm Calm 1.1 mph1.8 kmh 29.84 in1010.5 mb 0.04 in1.0 mm 0.00 in0.0 mm 0.21 in5.3 mm
07:44 AM 55.9°F13.3°C 54.0°F12.2°C 93% Calm Calm 1.1 mph1.8 kmh 29.84 in1010.5 mb 0.04 in1.0 mm 0.00 in0.0 mm 0.21 in5.3 mm
07:49 AM 56.1°F13.4°C 54.1°F12.3°C 93% 0.4 mph SE0.6 kmh SE 2.0 mph3.2 kmh 29.84 in1010.5 mb 0.04 in1.0 mm 0.00 in0.0 mm 0.21 in5.3 mm
07:54 AM 56.3°F13.5°C 54.3°F12.4°C 93% Calm Calm -- 29.84 in1010.5 mb 0.03 in0.8 mm 0.00 in0.0 mm 0.21 in5.3 mm
07:59 AM 56.5°F13.6°C 54.5°F12.5°C 93% 1.8 mph S2.9 kmh S 5.4 mph8.7 kmh 29.85 in1010.8 mb 0.03 in0.8 mm 0.00 in0.0 mm 0.21 in5.3 mm
08:04 AM 56.7°F13.7°C 54.7°F12.6°C 93% 0.2 mph SE0.3 kmh SE 2.0 mph3.2 kmh 29.85 in1010.8 mb 0.03 in0.8 mm 0.00 in0.0 mm 0.21 in5.3 mm
08:09 AM 56.8°F13.8°C 54.9°F12.7°C 93% Calm Calm 1.1 mph1.8 kmh 29.85 in1010.8 mb 0.02 in0.5 mm 0.00 in0.0 mm 0.21 in5.3 mm
08:14 AM 57.0°F13.9°C 55.0°F12.8°C 93% Calm Calm -- 29.85 in1010.8 mb 0.02 in0.5 mm 0.00 in0.0 mm 0.21 in5.3 mm
08:19 AM 57.4°F14.1°C 55.4°F13.0°C 93% Calm Calm -- 29.85 in1010.8 mb 0.02 in0.5 mm 0.00 in0.0 mm 0.21 in5.3 mm
08:24 AM 57.7°F14.3°C 55.8°F13.2°C 93% Calm Calm -- 29.85 in1010.8 mb 0.01 in0.3 mm 0.00 in0.0 mm 0.21 in5.3 mm
08:29 AM 57.9°F14.4°C 55.9°F13.3°C 93% Calm Calm -- 29.86 in1011.2 mb 0.01 in0.3 mm 0.00 in0.0 mm 0.21 in5.3 mm
08:34 AM 58.1°F14.5°C 56.1°F13.4°C 93% 0.2 mph SE0.3 kmh SE 1.1 mph1.8 kmh 29.86 in1011.2 mb 0.01 in0.3 mm 0.00 in0.0 mm 0.21 in5.3 mm
08:39 AM 58.3°F14.6°C 56.3°F13.5°C 93% Calm Calm 2.0 mph3.2 kmh 29.86 in1011.2 mb 0.00 in0.0 mm 0.00 in0.0 mm 0.21 in5.3 mm
08:44 AM 58.3°F14.6°C 55.9°F13.3°C 92% 0.7 mph SE1.1 kmh SE 3.1 mph5.0 kmh 29.86 in1011.2 mb 0.00 in0.0 mm 0.00 in0.0 mm 0.21 in5.3 mm
08:49 AM 58.5°F14.7°C 56.5°F13.6°C 93% Calm Calm 2.0 mph3.2 kmh 29.86 in1011.2 mb 0.00 in0.0 mm 0.00 in0.0 mm 0.21 in5.3 mm
08:54 AM 58.8°F14.9°C 56.5°F13.6°C 92% Calm Calm -- 29.86 in1011.2 mb 0.00 in0.0 mm 0.00 in0.0 mm 0.21 in5.3 mm
08:59 AM 58.6°F14.8°C 55.9°F13.3°C 91% 0.4 mph NNW0.6 kmh NNW 3.1 mph5.0 kmh 29.86 in1011.2 mb 0.00 in0.0 mm 0.00 in0.0 mm 0.21 in5.3 mm
09:04 AM 58.6°F14.8°C 55.9°F13.3°C 91% 0.2 mph NE0.3 kmh NE 2.0 mph3.2 kmh 29.87 in1011.5 mb 0.00 in0.0 mm 0.00 in0.0 mm 0.21 in5.3 mm
09:09 AM 58.6°F14.8°C 55.9°F13.3°C 91% 0.2 mph WSW0.3 kmh WSW 2.0 mph3.2 kmh 29.87 in1011.5 mb 0.00 in0.0 mm 0.00 in0.0 mm 0.22 in5.6 mm
09:14 AM 58.8°F14.9°C 56.1°F13.4°C 91% Calm Calm 3.1 mph5.0 kmh 29.87 in1011.5 mb 0.01 in0.3 mm 0.12 in3.0 mm 0.22 in5.6 mm
09:19 AM 58.8°F14.9°C 56.1°F13.4°C 91% Calm Calm 2.0 mph3.2 kmh 29.87 in1011.5 mb 0.01 in0.3 mm 0.00 in0.0 mm 0.22 in5.6 mm
09:24 AM 59.0°F15.0°C 56.3°F13.5°C 91% Calm Calm 2.0 mph3.2 kmh 29.87 in1011.5 mb 0.01 in0.3 mm 0.00 in0.0 mm 0.22 in5.6 mm
09:29 AM 59.2°F15.1°C 56.3°F13.5°C 90% 0.4 mph ESE0.6 kmh ESE 2.0 mph3.2 kmh 29.87 in1011.5 mb 0.01 in0.3 mm 0.00 in0.0 mm 0.22 in5.6 mm
09:34 AM 59.4°F15.2°C 56.5°F13.6°C 90% 0.2 mph ESE0.3 kmh ESE 2.0 mph3.2 kmh 29.87 in1011.5 mb 0.01 in0.3 mm 0.00 in0.0 mm 0.22 in5.6 mm
09:39 AM 59.2°F15.1°C 55.9°F13.3°C 89% 0.4 mph ENE0.6 kmh ENE 3.1 mph5.0 kmh 29.87 in1011.5 mb 0.01 in0.3 mm 0.00 in0.0 mm 0.22 in5.6 mm
09:44 AM 58.8°F14.9°C 55.6°F13.1°C 89% 0.4 mph SE0.6 kmh SE 3.1 mph5.0 kmh 29.87 in1011.5 mb 0.01 in0.3 mm 0.00 in0.0 mm 0.22 in5.6 mm
09:49 AM 58.8°F14.9°C 55.6°F13.1°C 89% 0.4 mph N0.6 kmh N 3.1 mph5.0 kmh 29.87 in1011.5 mb 0.01 in0.3 mm 0.00 in0.0 mm 0.22 in5.6 mm
09:54 AM 58.8°F14.9°C 55.6°F13.1°C 89% Calm Calm 3.1 mph5.0 kmh 29.87 in1011.5 mb 0.01 in0.3 mm 0.00 in0.0 mm 0.22 in5.6 mm
09:59 AM 59.0°F15.0°C 55.8°F13.2°C 89% 0.4 mph ENE0.6 kmh ENE 2.0 mph3.2 kmh 29.87 in1011.5 mb 0.01 in0.3 mm 0.00 in0.0 mm 0.22 in5.6 mm
10:04 AM 59.2°F15.1°C 55.9°F13.3°C 89% Calm Calm 1.1 mph1.8 kmh 29.87 in1011.5 mb 0.01 in0.3 mm 0.00 in0.0 mm 0.22 in5.6 mm
10:09 AM 59.7°F15.4°C 56.5°F13.6°C 89% 0.7 mph SW1.1 kmh SW 3.1 mph5.0 kmh 29.86 in1011.2 mb 0.01 in0.3 mm 0.00 in0.0 mm 0.22 in5.6 mm
10:14 AM 60.6°F15.9°C 57.4°F14.1°C 89% 0.2 mph SSW0.3 kmh SSW 5.4 mph8.7 kmh 29.85 in1010.8 mb 0.00 in0.0 mm 0.00 in0.0 mm 0.22 in5.6 mm
10:19 AM 61.0°F16.1°C 57.0°F13.9°C 87% 2.0 mph S3.2 kmh S 12.8 mph20.6 kmh 29.86 in1011.2 mb 0.00 in0.0 mm 0.00 in0.0 mm 0.22 in5.6 mm
10:24 AM 61.2°F16.2°C 57.0°F13.9°C 86% 0.4 mph W0.6 kmh W 8.5 mph13.7 kmh 29.85 in1010.8 mb 0.00 in0.0 mm 0.00 in0.0 mm 0.22 in5.6 mm
10:29 AM 61.5°F16.4°C 57.4°F14.1°C 86% 1.6 mph NW2.6 kmh NW 6.3 mph10.1 kmh 29.85 in1010.8 mb 0.00 in0.0 mm 0.00 in0.0 mm 0.22 in5.6 mm
10:34 AM 62.2°F16.8°C 57.7°F14.3°C 85% 2.2 mph SE3.5 kmh SE 8.5 mph13.7 kmh 29.85 in1010.8 mb 0.00 in0.0 mm 0.00 in0.0 mm 0.22 in5.6 mm
10:39 AM 62.8°F17.1°C 58.3°F14.6°C 85% 2.0 mph S3.2 kmh S 8.5 mph13.7 kmh 29.85 in1010.8 mb 0.00 in0.0 mm 0.00 in0.0 mm 0.22 in5.6 mm
10:44 AM 62.8°F17.1°C 57.6°F14.2°C 83% 1.1 mph NW1.8 kmh NW 8.5 mph13.7 kmh 29.85 in1010.8 mb 0.00 in0.0 mm 0.00 in0.0 mm 0.22 in5.6 mm
10:49 AM 63.0°F17.2°C 57.7°F14.3°C 83% 2.5 mph SE4.0 kmh SE 11.6 mph18.7 kmh 29.84 in1010.5 mb 0.00 in0.0 mm 0.00 in0.0 mm 0.22 in5.6 mm
10:54 AM 63.3°F17.4°C 58.1°F14.5°C 83% 1.8 mph NE2.9 kmh NE 8.5 mph13.7 kmh 29.84 in1010.5 mb 0.00 in0.0 mm 0.00 in0.0 mm 0.22 in5.6 mm
10:59 AM 63.9°F17.7°C 57.9°F14.4°C 81% 3.6 mph SW5.8 kmh SW 7.4 mph11.9 kmh 29.83 in1010.2 mb 0.00 in0.0 mm 0.00 in0.0 mm 0.22 in5.6 mm
11:04 AM 63.5°F17.5°C 57.2°F14.0°C 80% 4.5 mph SW7.2 kmh SW 10.5 mph16.9 kmh 29.83 in1010.2 mb 0.00 in0.0 mm 0.00 in0.0 mm 0.22 in5.6 mm
11:09 AM 63.7°F17.6°C 57.7°F14.3°C 81% 2.5 mph SE4.0 kmh SE 8.5 mph13.7 kmh 29.83 in1010.2 mb 0.00 in0.0 mm 0.00 in0.0 mm 0.22 in5.6 mm
11:14 AM 63.7°F17.6°C 57.4°F14.1°C 80% 6.5 mph SSW10.5 kmh SSW 10.5 mph16.9 kmh 29.83 in1010.2 mb 0.00 in0.0 mm 0.00 in0.0 mm 0.22 in5.6 mm
11:19 AM 63.9°F17.7°C 57.6°F14.2°C 80% 5.4 mph NNW8.7 kmh NNW 11.6 mph18.7 kmh 29.83 in1010.2 mb 0.00 in0.0 mm 0.00 in0.0 mm 0.22 in5.6 mm
11:24 AM 63.9°F17.7°C 57.2°F14.0°C 79% 4.9 mph S7.9 kmh S 13.9 mph22.4 kmh 29.83 in1010.2 mb 0.00 in0.0 mm 0.00 in0.0 mm 0.22 in5.6 mm
11:29 AM 64.0°F17.8°C 57.4°F14.1°C 79% 5.1 mph SE8.2 kmh SE 12.8 mph20.6 kmh 29.83 in1010.2 mb 0.00 in0.0 mm 0.00 in0.0 mm 0.22 in5.6 mm
11:34 AM 64.0°F17.8°C 57.4°F14.1°C 79% 4.3 mph E6.9 kmh E 12.8 mph20.6 kmh 29.82 in1009.8 mb 0.00 in0.0 mm 0.00 in0.0 mm 0.22 in5.6 mm
11:39 AM 64.2°F17.9°C 57.6°F14.2°C 79% 4.7 mph S7.6 kmh S 10.5 mph16.9 kmh 29.82 in1009.8 mb 0.00 in0.0 mm 0.00 in0.0 mm 0.22 in5.6 mm
11:44 AM 64.6°F18.1°C 57.9°F14.4°C 79% 3.1 mph SSW5.0 kmh SSW 10.5 mph16.9 kmh 29.81 in1009.5 mb 0.00 in0.0 mm 0.00 in0.0 mm 0.22 in5.6 mm
11:49 AM 64.2°F17.9°C 57.2°F14.0°C 78% 6.7 mph S10.8 kmh S 12.8 mph20.6 kmh 29.81 in1009.5 mb 0.00 in0.0 mm 0.00 in0.0 mm 0.22 in5.6 mm
11:54 AM 64.0°F17.8°C 57.0°F13.9°C 78% 6.7 mph S10.8 kmh S 14.8 mph23.8 kmh 29.81 in1009.5 mb 0.00 in0.0 mm 0.00 in0.0 mm 0.22 in5.6 mm
11:59 AM 64.2°F17.9°C 57.6°F14.2°C 79% 4.5 mph SE7.2 kmh SE 11.6 mph18.7 kmh 29.80 in1009.1 mb 0.00 in0.0 mm 0.00 in0.0 mm 0.22 in5.6 mm
12:04 PM 64.8°F18.2°C 58.1°F14.5°C 79% 8.3 mph SE13.4 kmh SE 14.8 mph23.8 kmh 29.80 in1009.1 mb 0.00 in0.0 mm 0.00 in0.0 mm 0.22 in5.6 mm
12:09 PM 65.1°F18.4°C 57.7°F14.3°C 77% 7.6 mph SW12.2 kmh SW 14.8 mph23.8 kmh 29.79 in1008.8 mb 0.00 in0.0 mm 0.00 in0.0 mm 0.22 in5.6 mm
12:14 PM 65.5°F18.6°C 58.1°F14.5°C 77% 6.7 mph SSE10.8 kmh SSE 12.8 mph20.6 kmh 29.79 in1008.8 mb 0.00 in0.0 mm 0.00 in0.0 mm 0.22 in5.6 mm
12:19 PM 65.7°F18.7°C 58.3°F14.6°C 77% 6.7 mph SE10.8 kmh SE 11.6 mph18.7 kmh 29.79 in1008.8 mb 0.00 in0.0 mm 0.00 in0.0 mm 0.22 in5.6 mm
12:24 PM 65.8°F18.8°C 58.1°F14.5°C 76% 4.7 mph SE7.6 kmh SE 9.6 mph15.4 kmh 29.79 in1008.8 mb 0.00 in0.0 mm 0.00 in0.0 mm 0.22 in5.6 mm
12:29 PM 65.7°F18.7°C 57.9°F14.4°C 76% 4.7 mph S7.6 kmh S 14.8 mph23.8 kmh 29.79 in1008.8 mb 0.00 in0.0 mm 0.00 in0.0 mm 0.22 in5.6 mm
12:34 PM 65.7°F18.7°C 57.9°F14.4°C 76% 5.8 mph SE9.3 kmh SE 10.5 mph16.9 kmh 29.79 in1008.8 mb 0.00 in0.0 mm 0.00 in0.0 mm 0.22 in5.6 mm
12:39 PM 65.7°F18.7°C 57.9°F14.4°C 76% 8.7 mph SE14.0 kmh SE 17.0 mph27.4 kmh 29.79 in1008.8 mb 0.00 in0.0 mm 0.00 in0.0 mm 0.22 in5.6 mm
12:44 PM 65.3°F18.5°C 57.6°F14.2°C 76% 7.4 mph SE11.9 kmh SE 13.9 mph22.4 kmh 29.78 in1008.5 mb 0.00 in0.0 mm 0.00 in0.0 mm 0.22 in5.6 mm
12:49 PM 65.5°F18.6°C 57.7°F14.3°C 76% 7.2 mph SE11.6 kmh SE 13.9 mph22.4 kmh 29.78 in1008.5 mb 0.00 in0.0 mm 0.00 in0.0 mm 0.22 in5.6 mm
12:54 PM 65.5°F18.6°C 57.4°F14.1°C 75% 6.7 mph S10.8 kmh S 13.9 mph22.4 kmh 29.78 in1008.5 mb 0.00 in0.0 mm 0.00 in0.0 mm 0.22 in5.6 mm
12:59 PM 65.7°F18.7°C 57.6°F14.2°C 75% 3.6 mph SE5.8 kmh SE 11.6 mph18.7 kmh 29.78 in1008.5 mb 0.00 in0.0 mm 0.00 in0.0 mm 0.22 in5.6 mm
01:04 PM 65.7°F18.7°C 57.6°F14.2°C 75% 3.4 mph SSE5.5 kmh SSE 8.5 mph13.7 kmh 29.78 in1008.5 mb 0.00 in0.0 mm 0.00 in0.0 mm 0.22 in5.6 mm
01:09 PM 65.8°F18.8°C 58.1°F14.5°C 76% 2.5 mph S4.0 kmh S 9.6 mph15.4 kmh 29.78 in1008.5 mb 0.00 in0.0 mm 0.00 in0.0 mm 0.22 in5.6 mm
01:14 PM 65.8°F18.8°C 58.1°F14.5°C 76% 3.6 mph SW5.8 kmh SW 8.5 mph13.7 kmh 29.77 in1008.1 mb 0.00 in0.0 mm 0.00 in0.0 mm 0.22 in5.6 mm
01:19 PM 65.8°F18.8°C 57.7°F14.3°C 75% 7.4 mph SW11.9 kmh SW 13.9 mph22.4 kmh 29.76 in1007.8 mb 0.00 in0.0 mm 0.00 in0.0 mm 0.22 in5.6 mm
01:24 PM 65.7°F18.7°C 57.9°F14.4°C 76% 4.7 mph E7.6 kmh E 10.5 mph16.9 kmh 29.76 in1007.8 mb 0.00 in0.0 mm 0.00 in0.0 mm 0.22 in5.6 mm
01:29 PM 65.7°F18.7°C 57.9°F14.4°C 76% 5.8 mph SSE9.3 kmh SSE 10.5 mph16.9 kmh 29.77 in1008.1 mb 0.00 in0.0 mm 0.00 in0.0 mm 0.22 in5.6 mm
01:34 PM 65.7°F18.7°C 57.9°F14.4°C 76% 6.5 mph S10.5 kmh S 10.5 mph16.9 kmh 29.76 in1007.8 mb 0.00 in0.0 mm 0.00 in0.0 mm 0.22 in5.6 mm
01:39 PM 65.7°F18.7°C 57.9°F14.4°C 76% 3.8 mph SSE6.1 kmh SSE 10.5 mph16.9 kmh 29.77 in1008.1 mb 0.00 in0.0 mm 0.00 in0.0 mm 0.22 in5.6 mm
01:44 PM 65.7°F18.7°C 57.9°F14.4°C 76% 3.1 mph SE5.0 kmh SE 8.5 mph13.7 kmh 29.77 in1008.1 mb 0.00 in0.0 mm 0.00 in0.0 mm 0.22 in5.6 mm
01:49 PM 65.7°F18.7°C 57.9°F14.4°C 76% 4.3 mph SE6.9 kmh SE 8.5 mph13.7 kmh 29.77 in1008.1 mb 0.00 in0.0 mm 0.00 in0.0 mm 0.22 in5.6 mm
01:54 PM 65.7°F18.7°C 57.9°F14.4°C 76% 4.5 mph S7.2 kmh S 10.5 mph16.9 kmh 29.77 in1008.1 mb 0.00 in0.0 mm 0.00 in0.0 mm 0.22 in5.6 mm
01:59 PM 65.3°F18.5°C 57.2°F14.0°C 75% 8.3 mph SSW13.4 kmh SSW 14.8 mph23.8 kmh 29.76 in1007.8 mb 0.00 in0.0 mm 0.00 in0.0 mm 0.22 in5.6 mm
02:04 PM 65.1°F18.4°C 57.0°F13.9°C 75% 5.1 mph SSE8.2 kmh SSE 12.8 mph20.6 kmh 29.76 in1007.8 mb 0.00 in0.0 mm 0.00 in0.0 mm 0.22 in5.6 mm
02:09 PM 65.1°F18.4°C 57.0°F13.9°C 75% 6.7 mph SE10.8 kmh SE 15.9 mph25.6 kmh 29.76 in1007.8 mb 0.00 in0.0 mm 0.00 in0.0 mm 0.22 in5.6 mm
02:14 PM 65.1°F18.4°C 57.0°F13.9°C 75% 2.7 mph S4.3 kmh S 13.9 mph22.4 kmh 29.75 in1007.5 mb 0.00 in0.0 mm 0.00 in0.0 mm 0.22 in5.6 mm
02:19 PM 64.9°F18.3°C 56.8°F13.8°C 75% 4.0 mph SE6.4 kmh SE 8.5 mph13.7 kmh 29.74 in1007.1 mb 0.00 in0.0 mm 0.00 in0.0 mm 0.22 in5.6 mm
02:24 PM 64.8°F18.2°C 57.0°F13.9°C 76% 5.6 mph SSW9.0 kmh SSW 10.5 mph16.9 kmh 29.73 in1006.8 mb 0.00 in0.0 mm 0.00 in0.0 mm 0.22 in5.6 mm
02:29 PM 64.2°F17.9°C 56.8°F13.8°C 77% 6.5 mph SE10.5 kmh SE 14.8 mph23.8 kmh 29.73 in1006.8 mb 0.00 in0.0 mm 0.00 in0.0 mm 0.22 in5.6 mm
02:34 PM 63.9°F17.7°C 56.8°F13.8°C 78% 5.4 mph SE8.7 kmh SE 15.9 mph25.6 kmh 29.74 in1007.1 mb 0.00 in0.0 mm 0.00 in0.0 mm 0.22 in5.6 mm
02:39 PM 63.7°F17.6°C 57.0°F13.9°C 79% 8.1 mph SSE13.0 kmh SSE 14.8 mph23.8 kmh 29.75 in1007.5 mb 0.00 in0.0 mm 0.00 in0.0 mm 0.22 in5.6 mm
02:44 PM 63.7°F17.6°C 57.4°F14.1°C 80% 6.3 mph SW10.1 kmh SW 13.9 mph22.4 kmh 29.75 in1007.5 mb 0.00 in0.0 mm 0.00 in0.0 mm 0.22 in5.6 mm
02:49 PM 63.3°F17.4°C 57.4°F14.1°C 81% 3.4 mph WSW5.5 kmh WSW 13.9 mph22.4 kmh 29.76 in1007.8 mb 0.00 in0.0 mm 0.00 in0.0 mm 0.22 in5.6 mm
02:54 PM 63.1°F17.3°C 57.6°F14.2°C 82% 4.0 mph WSW6.4 kmh WSW 8.5 mph13.7 kmh 29.77 in1008.1 mb 0.00 in0.0 mm 0.00 in0.0 mm 0.22 in5.6 mm
02:59 PM 63.0°F17.2°C 57.7°F14.3°C 83% 3.1 mph WNW5.0 kmh WNW 8.5 mph13.7 kmh 29.77 in1008.1 mb 0.01 in0.3 mm 0.12 in3.0 mm 0.23 in5.8 mm
03:04 PM 62.8°F17.1°C 57.9°F14.4°C 84% 2.7 mph WNW4.3 kmh WNW 6.3 mph10.1 kmh 29.78 in1008.5 mb 0.01 in0.3 mm 0.00 in0.0 mm 0.23 in5.8 mm
03:09 PM 62.4°F16.9°C 57.6°F14.2°C 84% 4.3 mph WSW6.9 kmh WSW 8.5 mph13.7 kmh 29.77 in1008.1 mb 0.01 in0.3 mm 0.00 in0.0 mm 0.23 in5.8 mm
03:14 PM 62.2°F16.8°C 57.7°F14.3°C 85% 2.0 mph W3.2 kmh W 7.4 mph11.9 kmh 29.78 in1008.5 mb 0.01 in0.3 mm 0.00 in0.0 mm 0.23 in5.8 mm
03:19 PM 62.2°F16.8°C 57.7°F14.3°C 85% 1.6 mph WNW2.6 kmh WNW 5.4 mph8.7 kmh 29.77 in1008.1 mb 0.01 in0.3 mm 0.00 in0.0 mm 0.23 in5.8 mm
03:24 PM 62.1°F16.7°C 57.6°F14.2°C 85% 4.9 mph NW7.9 kmh NW 8.5 mph13.7 kmh 29.78 in1008.5 mb 0.01 in0.3 mm 0.00 in0.0 mm 0.23 in5.8 mm
03:29 PM 62.1°F16.7°C 57.6°F14.2°C 85% 2.2 mph SSE3.5 kmh SSE 8.5 mph13.7 kmh 29.78 in1008.5 mb 0.01 in0.3 mm 0.00 in0.0 mm 0.23 in5.8 mm
03:34 PM 62.1°F16.7°C 57.6°F14.2°C 85% 3.1 mph SSW5.0 kmh SSW 9.6 mph15.4 kmh 29.79 in1008.8 mb 0.01 in0.3 mm 0.00 in0.0 mm 0.23 in5.8 mm
03:39 PM 62.2°F16.8°C 57.4°F14.1°C 84% 9.4 mph S15.1 kmh S 13.9 mph22.4 kmh 29.79 in1008.8 mb 0.01 in0.3 mm 0.00 in0.0 mm 0.23 in5.8 mm
03:44 PM 62.4°F16.9°C 57.6°F14.2°C 84% 5.4 mph SSW8.7 kmh SSW 12.8 mph20.6 kmh 29.78 in1008.5 mb 0.01 in0.3 mm 0.00 in0.0 mm 0.23 in5.8 mm
03:49 PM 62.2°F16.8°C 57.7°F14.3°C 85% 4.9 mph SW7.9 kmh SW 9.6 mph15.4 kmh 29.78 in1008.5 mb 0.01 in0.3 mm 0.00 in0.0 mm 0.23 in5.8 mm
03:54 PM 62.1°F16.7°C 57.6°F14.2°C 85% 4.5 mph SW7.2 kmh SW 9.6 mph15.4 kmh 29.78 in1008.5 mb 0.01 in0.3 mm 0.00 in0.0 mm 0.23 in5.8 mm
03:59 PM 62.1°F16.7°C 57.6°F14.2°C 85% 6.0 mph SW9.7 kmh SW 9.6 mph15.4 kmh 29.79 in1008.8 mb 0.00 in0.0 mm 0.00 in0.0 mm 0.23 in5.8 mm
04:04 PM 62.1°F16.7°C 57.6°F14.2°C 85% 4.3 mph SW6.9 kmh SW 8.5 mph13.7 kmh 29.79 in1008.8 mb 0.00 in0.0 mm 0.00 in0.0 mm 0.23 in5.8 mm
04:09 PM 61.9°F16.6°C 57.6°F14.2°C 86% 3.8 mph SW6.1 kmh SW 9.6 mph15.4 kmh 29.79 in1008.8 mb 0.00 in0.0 mm 0.00 in0.0 mm 0.23 in5.8 mm
04:14 PM 61.5°F16.4°C 57.4°F14.1°C 86% 2.0 mph SE3.2 kmh SE 7.4 mph11.9 kmh 29.80 in1009.1 mb 0.00 in0.0 mm 0.00 in0.0 mm 0.23 in5.8 mm
04:19 PM 61.3°F16.3°C 57.2°F14.0°C 86% 4.9 mph WSW7.9 kmh WSW 10.5 mph16.9 kmh 29.79 in1008.8 mb 0.01 in0.3 mm 0.12 in3.0 mm 0.24 in6.1 mm
04:24 PM 61.2°F16.2°C 57.2°F14.0°C 87% 1.1 mph SSE1.8 kmh SSE 3.1 mph5.0 kmh 29.79 in1008.8 mb 0.01 in0.3 mm 0.00 in0.0 mm 0.24 in6.1 mm
04:29 PM 61.0°F16.1°C 57.0°F13.9°C 87% 0.4 mph SW0.6 kmh SW 4.3 mph6.9 kmh 29.80 in1009.1 mb 0.01 in0.3 mm 0.00 in0.0 mm 0.24 in6.1 mm
04:34 PM 60.8°F16.0°C 57.2°F14.0°C 88% 0.9 mph SW1.4 kmh SW 3.1 mph5.0 kmh 29.80 in1009.1 mb 0.01 in0.3 mm 0.00 in0.0 mm 0.24 in6.1 mm
04:39 PM 60.6°F15.9°C 57.0°F13.9°C 88% Calm Calm 1.1 mph1.8 kmh 29.79 in1008.8 mb 0.02 in0.5 mm 0.12 in3.0 mm 0.25 in6.4 mm
04:44 PM 60.6°F15.9°C 57.4°F14.1°C 89% Calm Calm -- 29.79 in1008.8 mb 0.02 in0.5 mm 0.00 in0.0 mm 0.25 in6.4 mm
04:49 PM 60.4°F15.8°C 57.2°F14.0°C 89% 1.1 mph W1.8 kmh W 2.0 mph3.2 kmh 29.80 in1009.1 mb 0.02 in0.5 mm 0.00 in0.0 mm 0.25 in6.4 mm
04:54 PM 60.3°F15.7°C 57.4°F14.1°C 90% 2.9 mph SW4.7 kmh SW 5.4 mph8.7 kmh 29.81 in1009.5 mb 0.02 in0.5 mm 0.00 in0.0 mm 0.25 in6.4 mm
04:59 PM 60.4°F15.8°C 57.6°F14.2°C 90% 0.4 mph S0.6 kmh S 4.3 mph6.9 kmh 29.80 in1009.1 mb 0.03 in0.8 mm 0.12 in3.0 mm 0.26 in6.6 mm
05:04 PM 60.3°F15.7°C 57.4°F14.1°C 90% 1.6 mph W2.6 kmh W 3.1 mph5.0 kmh 29.79 in1008.8 mb 0.03 in0.8 mm 0.00 in0.0 mm 0.26 in6.6 mm
05:09 PM 60.1°F15.6°C 57.4°F14.1°C 91% 2.9 mph WSW4.7 kmh WSW 5.4 mph8.7 kmh 29.79 in1008.8 mb 0.03 in0.8 mm 0.00 in0.0 mm 0.26 in6.6 mm
05:14 PM 60.1°F15.6°C 57.4°F14.1°C 91% 4.3 mph SSW6.9 kmh SSW 7.4 mph11.9 kmh 29.80 in1009.1 mb 0.04 in1.0 mm 0.12 in3.0 mm 0.27 in6.9 mm
05:19 PM 59.7°F15.4°C 57.0°F13.9°C 91% 4.3 mph SW6.9 kmh SW 7.4 mph11.9 kmh 29.80 in1009.1 mb 0.03 in0.8 mm 0.00 in0.0 mm 0.27 in6.9 mm
05:24 PM 59.2°F15.1°C 56.5°F13.6°C 91% 5.6 mph SSW9.0 kmh SSW 8.5 mph13.7 kmh 29.80 in1009.1 mb 0.03 in0.8 mm 0.00 in0.0 mm 0.27 in6.9 mm
05:29 PM 58.8°F14.9°C 56.5°F13.6°C 92% 4.3 mph SSE6.9 kmh SSE 10.5 mph16.9 kmh 29.81 in1009.5 mb 0.04 in1.0 mm 0.12 in3.0 mm 0.28 in7.1 mm
05:34 PM 57.9°F14.4°C 55.2°F12.9°C 91% 3.6 mph SE5.8 kmh SE 10.5 mph16.9 kmh 29.80 in1009.1 mb 0.04 in1.0 mm 0.00 in0.0 mm 0.28 in7.1 mm
05:39 PM 57.2°F14.0°C 54.7°F12.6°C 91% 2.5 mph SE4.0 kmh SE 6.3 mph10.1 kmh 29.81 in1009.5 mb 0.03 in0.8 mm 0.00 in0.0 mm 0.28 in7.1 mm
05:44 PM 56.8°F13.8°C 54.5°F12.5°C 92% Calm Calm 4.3 mph6.9 kmh 29.80 in1009.1 mb 0.04 in1.0 mm 0.12 in3.0 mm 0.29 in7.4 mm
05:49 PM 56.5°F13.6°C 54.1°F12.3°C 92% 0.7 mph W1.1 kmh W 3.1 mph5.0 kmh 29.81 in1009.5 mb 0.04 in1.0 mm 0.00 in0.0 mm 0.29 in7.4 mm
05:54 PM 56.1°F13.4°C 53.8°F12.1°C 92% 4.3 mph SSW6.9 kmh SSW 7.4 mph11.9 kmh 29.83 in1010.2 mb 0.05 in1.3 mm 0.12 in3.0 mm 0.30 in7.6 mm
05:59 PM 55.9°F13.3°C 53.6°F12.0°C 92% Calm Calm 5.4 mph8.7 kmh 29.81 in1009.5 mb 0.04 in1.0 mm 0.00 in0.0 mm 0.30 in7.6 mm
06:04 PM 55.9°F13.3°C 54.0°F12.2°C 93% 0.9 mph NW1.4 kmh NW 2.0 mph3.2 kmh 29.82 in1009.8 mb 0.04 in1.0 mm 0.00 in0.0 mm 0.30 in7.6 mm
06:09 PM 55.9°F13.3°C 54.0°F12.2°C 93% 0.4 mph E0.6 kmh E 3.1 mph5.0 kmh 29.83 in1010.2 mb 0.05 in1.3 mm 0.12 in3.0 mm 0.31 in7.9 mm
06:14 PM 55.9°F13.3°C 54.0°F12.2°C 93% Calm Calm 2.0 mph3.2 kmh 29.83 in1010.2 mb 0.10 in2.5 mm 0.60 in15.2 mm 0.41 in10.4 mm
06:19 PM 55.9°F13.3°C 54.0°F12.2°C 93% Calm Calm -- 29.82 in1009.8 mb 0.40 in10.2 mm 3.60 in91.4 mm 0.67 in17.0 mm
06:24 PM 55.9°F13.3°C 54.0°F12.2°C 93% Calm Calm -- 29.83 in1010.2 mb 0.48 in12.2 mm 0.96 in24.4 mm 0.75 in19.1 mm
06:29 PM 56.1°F13.4°C 54.5°F12.5°C 94% Calm Calm -- 29.83 in1010.2 mb 0.57 in14.5 mm 1.08 in27.4 mm 0.86 in21.8 mm
06:34 PM 56.1°F13.4°C 54.5°F12.5°C 94% Calm Calm -- 29.83 in1010.2 mb 0.67 in17.0 mm 1.20 in30.5 mm 0.95 in24.1 mm
06:39 PM 56.3°F13.5°C 54.7°F12.6°C 94% 0.2 mph E0.3 kmh E 1.1 mph1.8 kmh 29.83 in1010.2 mb 0.70 in17.8 mm 0.36 in9.1 mm 0.98 in24.9 mm
06:44 PM 56.1°F13.4°C 54.1°F12.3°C 93% 0.7 mph N1.1 kmh N 3.1 mph5.0 kmh 29.83 in1010.2 mb 0.71 in18.0 mm 0.12 in3.0 mm 1.00 in25.4 mm
06:49 PM 55.9°F13.3°C 54.0°F12.2°C 93% Calm Calm 1.1 mph1.8 kmh 29.83 in1010.2 mb 0.73 in18.5 mm 0.24 in6.1 mm 1.02 in25.9 mm
06:54 PM 55.9°F13.3°C 54.3°F12.4°C 94% Calm Calm 1.1 mph1.8 kmh 29.84 in1010.5 mb 0.72 in18.3 mm 0.00 in0.0 mm 1.02 in25.9 mm
06:59 PM 55.9°F13.3°C 54.3°F12.4°C 94% Calm Calm 1.1 mph1.8 kmh 29.83 in1010.2 mb 0.73 in18.5 mm 0.12 in3.0 mm 1.04 in26.4 mm
07:04 PM 55.9°F13.3°C 54.3°F12.4°C 94% Calm Calm 1.1 mph1.8 kmh 29.83 in1010.2 mb 0.74 in18.8 mm 0.01 in0.3 mm 1.04 in26.4 mm
07:09 PM 55.6°F13.1°C 53.6°F12.0°C 93% 0.2 mph NE0.3 kmh NE 2.0 mph3.2 kmh 29.83 in1010.2 mb 0.73 in18.5 mm 0.00 in0.0 mm 1.05 in26.7 mm
07:14 PM 55.2°F12.9°C 53.2°F11.8°C 93% 0.2 mph N0.3 kmh N 1.1 mph1.8 kmh 29.83 in1010.2 mb 0.70 in17.8 mm 0.00 in0.0 mm 1.07 in27.2 mm
07:19 PM 55.0°F12.8°C 53.4°F11.9°C 94% 0.2 mph NW0.3 kmh NW 2.0 mph3.2 kmh 29.83 in1010.2 mb 0.41 in10.4 mm 0.00 in0.0 mm 1.08 in27.4 mm
07:24 PM 54.9°F12.7°C 53.2°F11.8°C 94% Calm Calm 1.1 mph1.8 kmh 29.83 in1010.2 mb 0.33 in8.4 mm 0.00 in0.0 mm 1.08 in27.4 mm
07:29 PM 54.9°F12.7°C 53.2°F11.8°C 94% Calm Calm -- 29.84 in1010.5 mb 0.23 in5.8 mm 0.00 in0.0 mm 1.08 in27.4 mm
07:34 PM 54.9°F12.7°C 53.2°F11.8°C 94% 0.2 mph W0.3 kmh W 1.1 mph1.8 kmh 29.84 in1010.5 mb 0.14 in3.6 mm 0.00 in0.0 mm 1.09 in27.7 mm
07:39 PM 54.7°F12.6°C 53.1°F11.7°C 94% 0.2 mph SSW0.3 kmh SSW 2.0 mph3.2 kmh 29.84 in1010.5 mb 0.11 in2.8 mm 0.00 in0.0 mm 1.09 in27.7 mm
07:44 PM 54.7°F12.6°C 53.1°F11.7°C 94% Calm Calm 3.1 mph5.0 kmh 29.84 in1010.5 mb 0.10 in2.5 mm 0.00 in0.0 mm 1.10 in27.9 mm
07:49 PM 54.5°F12.5°C 52.9°F11.6°C 94% 0.2 mph NE0.3 kmh NE 2.0 mph3.2 kmh 29.84 in1010.5 mb 0.08 in2.0 mm 0.00 in0.0 mm 1.10 in27.9 mm
07:54 PM 54.3°F12.4°C 52.7°F11.5°C 94% Calm Calm 1.1 mph1.8 kmh 29.85 in1010.8 mb 0.09 in2.3 mm 0.12 in3.0 mm 1.11 in28.2 mm
07:59 PM 54.3°F12.4°C 52.7°F11.5°C 94% Calm Calm 1.1 mph1.8 kmh 29.85 in1010.8 mb 0.12 in3.0 mm 0.36 in9.1 mm 1.15 in29.2 mm
08:04 PM 54.3°F12.4°C 52.7°F11.5°C 94% Calm Calm -- 29.84 in1010.5 mb 0.15 in3.8 mm 0.03 in0.8 mm 1.19 in30.2 mm
08:09 PM 54.3°F12.4°C 52.7°F11.5°C 94% Calm Calm 1.1 mph1.8 kmh 29.84 in1010.5 mb 0.22 in5.6 mm 0.84 in21.3 mm 1.26 in32.0 mm
08:14 PM 54.3°F12.4°C 52.7°F11.5°C 94% Calm Calm 2.0 mph3.2 kmh 29.84 in1010.5 mb 0.21 in5.3 mm 0.00 in0.0 mm 1.28 in32.5 mm
08:19 PM 54.3°F12.4°C 52.7°F11.5°C 94% 0.7 mph ENE1.1 kmh ENE 3.1 mph5.0 kmh 29.84 in1010.5 mb 0.20 in5.1 mm 0.00 in0.0 mm 1.28 in32.5 mm
08:24 PM 54.3°F12.4°C 52.7°F11.5°C 94% 0.2 mph E0.3 kmh E 2.0 mph3.2 kmh 29.85 in1010.8 mb 0.21 in5.3 mm 0.12 in3.0 mm 1.30 in33.0 mm
08:29 PM 54.1°F12.3°C 52.5°F11.4°C 94% 0.7 mph NE1.1 kmh NE 5.4 mph8.7 kmh 29.85 in1010.8 mb 0.23 in5.8 mm 0.24 in6.1 mm 1.31 in33.3 mm
08:34 PM 54.1°F12.3°C 52.5°F11.4°C 94% 1.1 mph NE1.8 kmh NE 5.4 mph8.7 kmh 29.85 in1010.8 mb 0.22 in5.6 mm 0.00 in0.0 mm 1.31 in33.3 mm
08:39 PM 54.0°F12.2°C 52.3°F11.3°C 94% Calm Calm 2.0 mph3.2 kmh 29.85 in1010.8 mb 0.22 in5.6 mm 0.00 in0.0 mm 1.31 in33.3 mm
08:44 PM 54.1°F12.3°C 52.5°F11.4°C 94% 0.7 mph ENE1.1 kmh ENE 2.0 mph3.2 kmh 29.85 in1010.8 mb 0.23 in5.8 mm 0.12 in3.0 mm 1.33 in33.8 mm
08:49 PM 54.1°F12.3°C 52.5°F11.4°C 94% Calm Calm 1.1 mph1.8 kmh 29.85 in1010.8 mb 0.27 in6.9 mm 0.48 in12.2 mm 1.37 in34.8 mm
08:54 PM 54.1°F12.3°C 52.5°F11.4°C 94% 0.4 mph NNE0.6 kmh NNE 3.1 mph5.0 kmh 29.85 in1010.8 mb 0.27 in6.9 mm 0.00 in0.0 mm 1.38 in35.1 mm
08:59 PM 54.0°F12.2°C 52.3°F11.3°C 94% Calm Calm 3.1 mph5.0 kmh 29.86 in1011.2 mb 0.24 in6.1 mm 0.00 in0.0 mm 1.39 in35.3 mm
09:04 PM 54.0°F12.2°C 52.3°F11.3°C 94% Calm Calm -- 29.86 in1011.2 mb 0.20 in5.1 mm 0.00 in0.0 mm 1.39 in35.3 mm
09:09 PM 54.0°F12.2°C 52.3°F11.3°C 94% 0.2 mph NNE0.3 kmh NNE 3.1 mph5.0 kmh 29.86 in1011.2 mb 0.14 in3.6 mm 0.00 in0.0 mm 1.40 in35.6 mm
09:14 PM 54.0°F12.2°C 52.3°F11.3°C 94% Calm Calm -- 29.86 in1011.2 mb 0.13 in3.3 mm 0.00 in0.0 mm 1.41 in35.8 mm
09:19 PM 54.0°F12.2°C 52.3°F11.3°C 94% Calm Calm 2.0 mph3.2 kmh 29.87 in1011.5 mb 0.17 in4.3 mm 0.48 in12.2 mm 1.45 in36.8 mm
09:24 PM 53.8°F12.1°C 52.2°F11.2°C 94% Calm Calm -- 29.87 in1011.5 mb 0.23 in5.8 mm 0.72 in18.3 mm 1.52 in38.6 mm
09:29 PM 53.8°F12.1°C 52.2°F11.2°C 94% Calm Calm 1.1 mph1.8 kmh 29.88 in1011.9 mb 0.23 in5.8 mm 0.00 in0.0 mm 1.54 in39.1 mm
09:34 PM 53.8°F12.1°C 52.2°F11.2°C 94% Calm Calm -- 29.88 in1011.9 mb 0.32 in8.1 mm 1.08 in27.4 mm 1.63 in41.4 mm
09:39 PM 54.0°F12.2°C 52.3°F11.3°C 94% Calm Calm -- 29.87 in1011.5 mb 0.35 in8.9 mm 0.36 in9.1 mm 1.66 in42.2 mm
09:44 PM 54.0°F12.2°C 52.5°F11.4°C 95% Calm Calm 2.0 mph3.2 kmh 29.87 in1011.5 mb 0.33 in8.4 mm 0.00 in0.0 mm 1.66 in42.2 mm
09:49 PM 54.0°F12.2°C 52.5°F11.4°C 95% 0.2 mph E0.3 kmh E 3.1 mph5.0 kmh 29.87 in1011.5 mb 0.29 in7.4 mm 0.00 in0.0 mm 1.66 in42.2 mm
09:54 PM 54.0°F12.2°C 52.3°F11.3°C 94% Calm Calm 2.0 mph3.2 kmh 29.88 in1011.9 mb 0.28 in7.1 mm 0.00 in0.0 mm 1.66 in42.2 mm
09:59 PM 54.0°F12.2°C 52.5°F11.4°C 95% Calm Calm 1.1 mph1.8 kmh 29.88 in1011.9 mb 0.27 in6.9 mm 0.00 in0.0 mm 1.66 in42.2 mm
10:04 PM 54.0°F12.2°C 52.5°F11.4°C 95% 0.9 mph NW1.4 kmh NW 3.1 mph5.0 kmh 29.88 in1011.9 mb 0.27 in6.9 mm 0.00 in0.0 mm 1.66 in42.2 mm
10:09 PM 54.0°F12.2°C 52.5°F11.4°C 95% Calm Calm -- 29.88 in1011.9 mb 0.26 in6.6 mm 0.00 in0.0 mm 1.66 in42.2 mm
10:14 PM 54.0°F12.2°C 52.5°F11.4°C 95% Calm Calm -- 29.88 in1011.9 mb 0.25 in6.4 mm 0.00 in0.0 mm 1.66 in42.2 mm
10:19 PM 54.0°F12.2°C 52.5°F11.4°C 95% 0.2 mph E0.3 kmh E 1.1 mph1.8 kmh 29.88 in1011.9 mb 0.21 in5.3 mm 0.00 in0.0 mm 1.66 in42.2 mm
10:24 PM 54.0°F12.2°C 52.5°F11.4°C 95% Calm Calm 2.0 mph3.2 kmh 29.88 in1011.9 mb 0.14 in3.6 mm 0.00 in0.0 mm 1.66 in42.2 mm
10:29 PM 54.0°F12.2°C 52.5°F11.4°C 95% Calm Calm 1.1 mph1.8 kmh 29.88 in1011.9 mb 0.12 in3.0 mm 0.00 in0.0 mm 1.66 in42.2 mm
10:34 PM 54.0°F12.2°C 52.5°F11.4°C 95% Calm Calm 1.1 mph1.8 kmh 29.88 in1011.9 mb 0.03 in0.8 mm 0.00 in0.0 mm 1.66 in42.2 mm
10:39 PM 54.0°F12.2°C 52.5°F11.4°C 95% Calm Calm -- 29.88 in1011.9 mb 0.00 in0.0 mm 0.00 in0.0 mm 1.66 in42.2 mm
10:44 PM 54.0°F12.2°C 52.5°F11.4°C 95% 0.2 mph E0.3 kmh E 1.1 mph1.8 kmh 29.88 in1011.9 mb 0.00 in0.0 mm 0.00 in0.0 mm 1.66 in42.2 mm
10:49 PM 54.0°F12.2°C 52.5°F11.4°C 95% Calm Calm 1.1 mph1.8 kmh 29.88 in1011.9 mb 0.00 in0.0 mm 0.00 in0.0 mm 1.66 in42.2 mm
10:54 PM 54.0°F12.2°C 52.5°F11.4°C 95% 0.2 mph S0.3 kmh S 2.0 mph3.2 kmh 29.88 in1011.9 mb 0.00 in0.0 mm 0.00 in0.0 mm 1.66 in42.2 mm
10:59 PM 54.0°F12.2°C 52.5°F11.4°C 95% 0.4 mph N0.6 kmh N 3.1 mph5.0 kmh 29.88 in1011.9 mb 0.00 in0.0 mm 0.00 in0.0 mm 1.66 in42.2 mm
11:04 PM 54.0°F12.2°C 52.5°F11.4°C 95% Calm Calm 3.1 mph5.0 kmh 29.88 in1011.9 mb 0.00 in0.0 mm 0.00 in0.0 mm 1.66 in42.2 mm
11:09 PM 54.0°F12.2°C 52.5°F11.4°C 95% 1.1 mph NE1.8 kmh NE 6.3 mph10.1 kmh 29.88 in1011.9 mb 0.00 in0.0 mm 0.00 in0.0 mm 1.66 in42.2 mm
11:14 PM 54.0°F12.2°C 52.5°F11.4°C 95% 0.2 mph NNE0.3 kmh NNE 2.0 mph3.2 kmh 29.88 in1011.9 mb 0.00 in0.0 mm 0.00 in0.0 mm 1.66 in42.2 mm
11:19 PM 54.0°F12.2°C 52.5°F11.4°C 95% 0.9 mph NE1.4 kmh NE 3.1 mph5.0 kmh 29.88 in1011.9 mb 0.00 in0.0 mm 0.00 in0.0 mm 1.66 in42.2 mm
11:24 PM 53.8°F12.1°C 52.3°F11.3°C 95% Calm Calm 3.1 mph5.0 kmh 29.88 in1011.9 mb 0.00 in0.0 mm 0.00 in0.0 mm 1.66 in42.2 mm
11:29 PM 53.8°F12.1°C 52.3°F11.3°C 95% Calm Calm 4.3 mph6.9 kmh 29.87 in1011.5 mb 0.00 in0.0 mm 0.00 in0.0 mm 1.66 in42.2 mm
11:34 PM 53.8°F12.1°C 52.3°F11.3°C 95% Calm Calm 3.1 mph5.0 kmh 29.87 in1011.5 mb 0.00 in0.0 mm 0.00 in0.0 mm 1.66 in42.2 mm
11:39 PM 53.8°F12.1°C 52.3°F11.3°C 95% Calm Calm -- 29.87 in1011.5 mb 0.00 in0.0 mm 0.00 in0.0 mm 1.66 in42.2 mm
11:44 PM 53.8°F12.1°C 52.3°F11.3°C 95% 0.2 mph E0.3 kmh E 1.1 mph1.8 kmh 29.88 in1011.9 mb 0.00 in0.0 mm 0.00 in0.0 mm 1.66 in42.2 mm
11:49 PM 53.8°F12.1°C 52.3°F11.3°C 95% Calm Calm -- 29.88 in1011.9 mb 0.00 in0.0 mm 0.00 in0.0 mm 1.66 in42.2 mm
11:54 PM 54.0°F12.2°C 52.5°F11.4°C 95% Calm Calm -- 29.87 in1011.5 mb 0.00 in0.0 mm 0.00 in0.0 mm 1.66 in42.2 mm
11:59 PM 54.0°F12.2°C 52.5°F11.4°C 95% Calm Calm -- 29.88 in1011.9 mb 0.00 in0.0 mm 0.00 in0.0 mm 1.66 in42.2 mm